sensor_id;sensor_type;location;lat;lon;timestamp;pressure;altitude;pressure_sealevel;temperature;humidity
2675;BME280;1347;42.122;24.746;2024-01-16T00:01:37;98205.69;;;2.19;96.72
2675;BME280;1347;42.122;24.746;2024-01-16T00:04:05;98191.50;;;2.22;96.83
2675;BME280;1347;42.122;24.746;2024-01-16T00:06:32;98185.97;;;2.19;96.76
2675;BME280;1347;42.122;24.746;2024-01-16T00:08:58;98180.47;;;2.15;97.18
2675;BME280;1347;42.122;24.746;2024-01-16T00:11:25;98181.81;;;2.21;96.74
2675;BME280;1347;42.122;24.746;2024-01-16T00:13:52;98173.59;;;2.18;96.06
2675;BME280;1347;42.122;24.746;2024-01-16T00:16:19;98179.09;;;2.21;96.51
2675;BME280;1347;42.122;24.746;2024-01-16T00:18:46;98191.50;;;2.22;95.97
2675;BME280;1347;42.122;24.746;2024-01-16T00:21:14;98189.75;;;2.30;95.64
2675;BME280;1347;42.122;24.746;2024-01-16T00:23:41;98196.81;;;2.35;95.24
2675;BME280;1347;42.122;24.746;2024-01-16T00:26:07;98193.47;;;2.26;95.73
2675;BME280;1347;42.122;24.746;2024-01-16T00:28:35;98198.09;;;2.25;95.03
2675;BME280;1347;42.122;24.746;2024-01-16T00:31:06;98206.81;;;2.18;94.77
2675;BME280;1347;42.122;24.746;2024-01-16T00:33:33;98207.66;;;2.07;95.72
2675;BME280;1347;42.122;24.746;2024-01-16T00:36:00;98207.63;;;1.91;97.07
2675;BME280;1347;42.122;24.746;2024-01-16T00:38:28;98199.47;;;1.75;98.29
2675;BME280;1347;42.122;24.746;2024-01-16T00:40:55;98207.91;;;1.74;99.13
2675;BME280;1347;42.122;24.746;2024-01-16T00:43:22;98203.50;;;1.81;98.20
2675;BME280;1347;42.122;24.746;2024-01-16T00:45:49;98207.97;;;1.90;97.81
2675;BME280;1347;42.122;24.746;2024-01-16T00:48:16;98207.63;;;1.91;98.08
2675;BME280;1347;42.122;24.746;2024-01-16T00:50:44;98194.34;;;1.86;98.41
2675;BME280;1347;42.122;24.746;2024-01-16T00:53:11;98180.78;;;1.82;98.82
2675;BME280;1347;42.122;24.746;2024-01-16T00:55:40;98194.97;;;1.79;98.71
2675;BME280;1347;42.122;24.746;2024-01-16T00:58:07;98193.13;;;1.83;98.29
2675;BME280;1347;42.122;24.746;2024-01-16T01:00:33;98193.91;;;1.84;98.69
2675;BME280;1347;42.122;24.746;2024-01-16T01:03:02;98184.34;;;1.87;97.99
2675;BME280;1347;42.122;24.746;2024-01-16T01:05:30;98181.34;;;1.76;98.05
2675;BME280;1347;42.122;24.746;2024-01-16T01:07:57;98184.38;;;1.74;98.09
2675;BME280;1347;42.122;24.746;2024-01-16T01:10:24;98171.75;;;1.63;98.61
2675;BME280;1347;42.122;24.746;2024-01-16T01:12:52;98171.97;;;1.58;98.84
2675;BME280;1347;42.122;24.746;2024-01-16T01:15:20;98170.75;;;1.43;100.00
2675;BME280;1347;42.122;24.746;2024-01-16T01:17:48;98161.91;;;1.42;100.00
2675;BME280;1347;42.122;24.746;2024-01-16T01:20:17;98166.75;;;1.37;100.00
2675;BME280;1347;42.122;24.746;2024-01-16T01:22:44;98166.41;;;1.38;100.00
2675;BME280;1347;42.122;24.746;2024-01-16T01:25:11;98160.81;;;1.31;100.00
2675;BME280;1347;42.122;24.746;2024-01-16T01:27:38;98153.84;;;1.18;100.00
2675;BME280;1347;42.122;24.746;2024-01-16T01:30:08;98142.53;;;1.00;100.00
2675;BME280;1347;42.122;24.746;2024-01-16T01:32:35;98132.16;;;1.02;100.00
2675;BME280;1347;42.122;24.746;2024-01-16T01:35:02;98135.91;;;0.98;100.00
2675;BME280;1347;42.122;24.746;2024-01-16T01:37:29;98129.19;;;0.80;100.00
2675;BME280;1347;42.122;24.746;2024-01-16T01:39:56;98132.81;;;0.59;100.00
2675;BME280;1347;42.122;24.746;2024-01-16T01:42:23;98140.88;;;0.59;100.00
2675;BME280;1347;42.122;24.746;2024-01-16T01:44:50;98133.34;;;0.65;100.00
2675;BME280;1347;42.122;24.746;2024-01-16T01:47:18;98129.97;;;0.68;100.00
2675;BME280;1347;42.122;24.746;2024-01-16T01:49:45;98136.25;;;0.72;100.00
2675;BME280;1347;42.122;24.746;2024-01-16T01:52:13;98145.91;;;0.73;100.00
2675;BME280;1347;42.122;24.746;2024-01-16T01:54:40;98151.44;;;0.77;100.00
2675;BME280;1347;42.122;24.746;2024-01-16T01:57:08;98160.53;;;0.72;100.00
2675;BME280;1347;42.122;24.746;2024-01-16T01:59:35;98151.91;;;0.79;100.00
2675;BME280;1347;42.122;24.746;2024-01-16T02:02:03;98148.19;;;0.71;100.00
2675;BME280;1347;42.122;24.746;2024-01-16T02:04:32;98150.97;;;0.74;100.00
2675;BME280;1347;42.122;24.746;2024-01-16T02:07:00;98150.66;;;0.76;100.00
2675;BME280;1347;42.122;24.746;2024-01-16T02:09:28;98145.38;;;0.80;100.00
2675;BME280;1347;42.122;24.746;2024-01-16T02:11:56;98149.97;;;0.79;100.00
2675;BME280;1347;42.122;24.746;2024-01-16T02:14:22;98151.31;;;0.73;100.00
2675;BME280;1347;42.122;24.746;2024-01-16T02:16:49;98151.09;;;0.78;100.00
2675;BME280;1347;42.122;24.746;2024-01-16T02:19:16;98146.72;;;0.73;100.00
2675;BME280;1347;42.122;24.746;2024-01-16T02:21:48;98145.91;;;0.73;100.00
2675;BME280;1347;42.122;24.746;2024-01-16T02:24:17;98155.59;;;0.74;100.00
2675;BME280;1347;42.122;24.746;2024-01-16T02:26:45;98161.09;;;0.78;100.00
2675;BME280;1347;42.122;24.746;2024-01-16T02:29:12;98168.94;;;0.83;100.00
2675;BME280;1347;42.122;24.746;2024-01-16T02:31:39;98172.56;;;0.87;100.00
2675;BME280;1347;42.122;24.746;2024-01-16T02:34:06;98164.59;;;0.78;100.00
2675;BME280;1347;42.122;24.746;2024-01-16T02:36:34;98167.03;;;0.83;100.00
2675;BME280;1347;42.122;24.746;2024-01-16T02:39:01;98166.84;;;0.88;100.00
2675;BME280;1347;42.122;24.746;2024-01-16T02:41:29;98170.06;;;0.94;100.00
2675;BME280;1347;42.122;24.746;2024-01-16T02:43:56;98171.44;;;1.00;100.00
2675;BME280;1347;42.122;24.746;2024-01-16T02:46:22;98175.78;;;1.04;100.00
2675;BME280;1347;42.122;24.746;2024-01-16T02:48:50;98164.66;;;1.18;100.00
2675;BME280;1347;42.122;24.746;2024-01-16T02:51:16;98154.84;;;1.26;100.00
2675;BME280;1347;42.122;24.746;2024-01-16T02:53:43;98158.13;;;1.19;100.00
2675;BME280;1347;42.122;24.746;2024-01-16T02:56:10;98167.03;;;0.83;100.00
2675;BME280;1347;42.122;24.746;2024-01-16T02:58:38;98177.28;;;0.65;100.00
2675;BME280;1347;42.122;24.746;2024-01-16T03:01:05;98175.94;;;0.59;100.00
2675;BME280;1347;42.122;24.746;2024-01-16T03:03:32;98170.75;;;0.66;100.00
2675;BME280;1347;42.122;24.746;2024-01-16T03:05:59;98180.41;;;0.55;100.00
2675;BME280;1347;42.122;24.746;2024-01-16T03:08:26;98186.72;;;0.71;100.00
2675;BME280;1347;42.122;24.746;2024-01-16T03:10:53;98167.50;;;0.73;100.00
2675;BME280;1347;42.122;24.746;2024-01-16T03:13:19;98178.94;;;0.82;100.00
2675;BME280;1347;42.122;24.746;2024-01-16T03:15:48;98174.25;;;0.91;100.00
2675;BME280;1347;42.122;24.746;2024-01-16T03:18:15;98178.41;;;0.89;100.00
2675;BME280;1347;42.122;24.746;2024-01-16T03:20:43;98185.59;;;0.85;100.00
2675;BME280;1347;42.122;24.746;2024-01-16T03:23:10;98189.88;;;0.86;100.00
2675;BME280;1347;42.122;24.746;2024-01-16T03:25:36;98179.53;;;0.88;100.00
2675;BME280;1347;42.122;24.746;2024-01-16T03:28:04;98177.28;;;0.90;100.00
2675;BME280;1347;42.122;24.746;2024-01-16T03:30:33;98167.84;;;0.84;100.00
2675;BME280;1347;42.122;24.746;2024-01-16T03:33:02;98171.44;;;0.88;100.00
2675;BME280;1347;42.122;24.746;2024-01-16T03:35:29;98168.94;;;0.95;100.00
2675;BME280;1347;42.122;24.746;2024-01-16T03:37:56;98182.91;;;0.97;100.00
2675;BME280;1347;42.122;24.746;2024-01-16T03:40:23;98191.53;;;1.02;100.00
2675;BME280;1347;42.122;24.746;2024-01-16T03:42:50;98208.97;;;0.93;100.00
2675;BME280;1347;42.122;24.746;2024-01-16T03:45:16;98203.03;;;0.87;100.00
2675;BME280;1347;42.122;24.746;2024-01-16T03:47:43;98206.72;;;0.70;100.00
2675;BME280;1347;42.122;24.746;2024-01-16T03:50:12;98212.66;;;0.64;100.00
2675;BME280;1347;42.122;24.746;2024-01-16T03:52:38;98220.38;;;0.29;100.00
2675;BME280;1347;42.122;24.746;2024-01-16T03:55:05;98218.09;;;0.31;100.00
2675;BME280;1347;42.122;24.746;2024-01-16T03:57:32;98218.75;;;0.16;100.00
2675;BME280;1347;42.122;24.746;2024-01-16T03:59:59;98224.00;;;0.00;100.00
2675;BME280;1347;42.122;24.746;2024-01-16T04:02:26;98235.28;;;-0.07;100.00
2675;BME280;1347;42.122;24.746;2024-01-16T04:04:53;98244.91;;;0.15;100.00
2675;BME280;1347;42.122;24.746;2024-01-16T04:07:23;98246.22;;;0.30;100.00
2675;BME280;1347;42.122;24.746;2024-01-16T04:09:52;98246.88;;;0.27;100.00
2675;BME280;1347;42.122;24.746;2024-01-16T04:12:18;98252.22;;;0.15;100.00
2675;BME280;1347;42.122;24.746;2024-01-16T04:14:45;98260.44;;;0.18;100.00
2675;BME280;1347;42.122;24.746;2024-01-16T04:17:12;98260.19;;;0.23;100.00
2675;BME280;1347;42.122;24.746;2024-01-16T04:19:39;98278.78;;;0.37;100.00
2675;BME280;1347;42.122;24.746;2024-01-16T04:22:06;98270.16;;;0.44;100.00
2675;BME280;1347;42.122;24.746;2024-01-16T04:24:34;98276.47;;;0.48;100.00
2675;BME280;1347;42.122;24.746;2024-01-16T04:27:02;98281.63;;;0.53;100.00
2675;BME280;1347;42.122;24.746;2024-01-16T04:29:29;98283.09;;;0.62;100.00
2675;BME280;1347;42.122;24.746;2024-01-16T04:31:56;98283.03;;;0.71;100.00
2675;BME280;1347;42.122;24.746;2024-01-16T04:34:23;98298.97;;;0.76;100.00
2675;BME280;1347;42.122;24.746;2024-01-16T04:36:50;98285.63;;;0.80;100.00
2675;BME280;1347;42.122;24.746;2024-01-16T04:39:17;98279.09;;;0.93;100.00
2675;BME280;1347;42.122;24.746;2024-01-16T04:41:45;98295.38;;;0.84;100.00
2675;BME280;1347;42.122;24.746;2024-01-16T04:44:12;98303.72;;;1.03;100.00
2675;BME280;1347;42.122;24.746;2024-01-16T04:46:38;98308.59;;;1.10;100.00
2675;BME280;1347;42.122;24.746;2024-01-16T04:49:05;98315.91;;;1.09;100.00
2675;BME280;1347;42.122;24.746;2024-01-16T04:51:32;98316.44;;;1.03;100.00
2675;BME280;1347;42.122;24.746;2024-01-16T04:53:59;98327.56;;;1.14;100.00
2675;BME280;1347;42.122;24.746;2024-01-16T04:56:26;98329.91;;;1.03;100.00
2675;BME280;1347;42.122;24.746;2024-01-16T04:58:54;98321.28;;;1.09;100.00
2675;BME280;1347;42.122;24.746;2024-01-16T05:01:21;98328.25;;;1.23;100.00
2675;BME280;1347;42.122;24.746;2024-01-16T05:03:47;98330.06;;;1.31;100.00
2675;BME280;1347;42.122;24.746;2024-01-16T05:06:15;98348.94;;;1.43;100.00
2675;BME280;1347;42.122;24.746;2024-01-16T05:08:42;98352.34;;;1.52;100.00
2675;BME280;1347;42.122;24.746;2024-01-16T05:11:09;98353.34;;;1.60;100.00
2675;BME280;1347;42.122;24.746;2024-01-16T05:13:36;98351.53;;;1.64;100.00
2675;BME280;1347;42.122;24.746;2024-01-16T05:16:05;98357.38;;;1.66;100.00
2675;BME280;1347;42.122;24.746;2024-01-16T05:18:33;98366.41;;;1.70;100.00
2675;BME280;1347;42.122;24.746;2024-01-16T05:21:00;98363.13;;;1.64;100.00
2675;BME280;1347;42.122;24.746;2024-01-16T05:23:27;98367.97;;;1.46;100.00
2675;BME280;1347;42.122;24.746;2024-01-16T05:25:54;98381.28;;;1.52;100.00
2675;BME280;1347;42.122;24.746;2024-01-16T05:28:21;98393.06;;;1.47;100.00
2675;BME280;1347;42.122;24.746;2024-01-16T05:30:48;98385.88;;;1.51;100.00
2675;BME280;1347;42.122;24.746;2024-01-16T05:33:16;98394.66;;;1.48;100.00
2675;BME280;1347;42.122;24.746;2024-01-16T05:35:43;98403.06;;;1.46;100.00
2675;BME280;1347;42.122;24.746;2024-01-16T05:38:10;98415.91;;;1.50;100.00
2675;BME280;1347;42.122;24.746;2024-01-16T05:40:37;98418.16;;;1.60;100.00
2675;BME280;1347;42.122;24.746;2024-01-16T05:43:04;98432.13;;;1.50;100.00
2675;BME280;1347;42.122;24.746;2024-01-16T05:45:31;98440.09;;;1.58;100.00
2675;BME280;1347;42.122;24.746;2024-01-16T05:47:58;98432.81;;;1.59;100.00
2675;BME280;1347;42.122;24.746;2024-01-16T05:50:26;98442.94;;;1.62;100.00
2675;BME280;1347;42.122;24.746;2024-01-16T05:52:53;98451.13;;;1.65;100.00
2675;BME280;1347;42.122;24.746;2024-01-16T05:55:20;98468.91;;;1.66;100.00
2675;BME280;1347;42.122;24.746;2024-01-16T05:57:48;98477.50;;;1.80;100.00
2675;BME280;1347;42.122;24.746;2024-01-16T06:00:15;98478.84;;;1.87;100.00
2675;BME280;1347;42.122;24.746;2024-01-16T06:02:43;98470.06;;;1.90;100.00
2675;BME280;1347;42.122;24.746;2024-01-16T06:05:10;98475.47;;;1.90;100.00
2675;BME280;1347;42.122;24.746;2024-01-16T06:07:38;98472.00;;;2.01;100.00
2675;BME280;1347;42.122;24.746;2024-01-16T06:10:06;98478.53;;;2.12;99.98
2675;BME280;1347;42.122;24.746;2024-01-16T06:12:34;98479.06;;;2.30;100.00
2675;BME280;1347;42.122;24.746;2024-01-16T06:15:01;98476.75;;;2.44;100.00
2675;BME280;1347;42.122;24.746;2024-01-16T06:17:27;98488.66;;;2.68;100.00
2675;BME280;1347;42.122;24.746;2024-01-16T06:19:55;98493.75;;;2.97;100.00
2675;BME280;1347;42.122;24.746;2024-01-16T06:22:22;98514.09;;;3.19;100.00
2675;BME280;1347;42.122;24.746;2024-01-16T06:24:50;98516.72;;;3.43;100.00
2675;BME280;1347;42.122;24.746;2024-01-16T06:27:17;98529.50;;;3.74;100.00
2675;BME280;1347;42.122;24.746;2024-01-16T06:29:45;98537.13;;;3.84;100.00
2675;BME280;1347;42.122;24.746;2024-01-16T06:32:12;98542.53;;;4.00;100.00
2675;BME280;1347;42.122;24.746;2024-01-16T06:34:39;98548.41;;;4.18;100.00
2675;BME280;1347;42.122;24.746;2024-01-16T06:37:06;98549.34;;;4.41;100.00
2675;BME280;1347;42.122;24.746;2024-01-16T06:39:33;98551.50;;;4.67;100.00
2675;BME280;1347;42.122;24.746;2024-01-16T06:42:02;98561.84;;;4.96;100.00
2675;BME280;1347;42.122;24.746;2024-01-16T06:44:29;98560.78;;;5.20;99.98
2675;BME280;1347;42.122;24.746;2024-01-16T06:46:56;98576.31;;;5.39;99.28
2675;BME280;1347;42.122;24.746;2024-01-16T06:49:23;98577.22;;;5.66;98.72
2675;BME280;1347;42.122;24.746;2024-01-16T06:51:50;98594.88;;;5.95;97.27
2675;BME280;1347;42.122;24.746;2024-01-16T06:54:17;98597.13;;;6.12;96.64
2675;BME280;1347;42.122;24.746;2024-01-16T07:00:09;98614.13;;;6.51;94.15
2675;BME280;1347;42.122;24.746;2024-01-16T07:02:36;98621.69;;;6.61;93.87
2675;BME280;1347;42.122;24.746;2024-01-16T07:05:04;98633.91;;;6.71;92.78
2675;BME280;1347;42.122;24.746;2024-01-16T07:07:31;98640.41;;;6.89;92.60
2675;BME280;1347;42.122;24.746;2024-01-16T07:09:58;98650.31;;;7.00;91.95
2675;BME280;1347;42.122;24.746;2024-01-16T07:12:24;98664.34;;;7.02;91.43
2675;BME280;1347;42.122;24.746;2024-01-16T07:14:51;98665.13;;;7.03;91.47
2675;BME280;1347;42.122;24.746;2024-01-16T07:17:20;98676.56;;;7.12;91.22
2675;BME280;1347;42.122;24.746;2024-01-16T07:19:46;98678.69;;;7.22;90.58
2675;BME280;1347;42.122;24.746;2024-01-16T07:25:35;98687.31;;;7.28;91.17
2675;BME280;1347;42.122;24.746;2024-01-16T07:28:02;98711.50;;;7.33;90.90
2675;BME280;1347;42.122;24.746;2024-01-16T07:30:29;98706.03;;;7.29;90.78
2675;BME280;1347;42.122;24.746;2024-01-16T07:32:57;98720.91;;;7.35;90.94
2675;BME280;1347;42.122;24.746;2024-01-16T07:35:24;98720.28;;;7.46;90.38
2675;BME280;1347;42.122;24.746;2024-01-16T07:37:51;98729.22;;;7.43;89.68
2675;BME280;1347;42.122;24.746;2024-01-16T07:40:18;98741.63;;;7.40;89.09
2675;BME280;1347;42.122;24.746;2024-01-16T07:42:46;98744.78;;;7.42;88.91
2675;BME280;1347;42.122;24.746;2024-01-16T07:45:13;98749.84;;;7.44;88.78
2675;BME280;1347;42.122;24.746;2024-01-16T07:47:39;98767.84;;;7.48;87.34
2675;BME280;1347;42.122;24.746;2024-01-16T07:50:09;98779.59;;;7.52;86.43
2675;BME280;1347;42.122;24.746;2024-01-16T07:55:58;98795.28;;;7.59;85.24
2675;BME280;1347;42.122;24.746;2024-01-16T07:58:25;98805.66;;;7.50;85.92
2675;BME280;1347;42.122;24.746;2024-01-16T08:00:52;98809.19;;;7.54;85.39
2675;BME280;1347;42.122;24.746;2024-01-16T08:03:19;98826.00;;;7.56;83.99
2675;BME280;1347;42.122;24.746;2024-01-16T08:05:47;98832.97;;;7.53;84.91
2675;BME280;1347;42.122;24.746;2024-01-16T08:08:14;98836.19;;;7.59;83.90
2675;BME280;1347;42.122;24.746;2024-01-16T08:10:46;98850.78;;;7.70;82.49
2675;BME280;1347;42.122;24.746;2024-01-16T08:13:13;98836.88;;;7.79;81.82
2675;BME280;1347;42.122;24.746;2024-01-16T08:15:42;98839.91;;;7.73;81.45
2675;BME280;1347;42.122;24.746;2024-01-16T08:18:09;98824.88;;;7.83;80.98
2675;BME280;1347;42.122;24.746;2024-01-16T08:20:36;98836.06;;;8.04;79.62
2675;BME280;1347;42.122;24.746;2024-01-16T08:23:03;98834.09;;;8.01;79.29
2675;BME280;1347;42.122;24.746;2024-01-16T08:25:30;98841.16;;;8.06;79.16
2675;BME280;1347;42.122;24.746;2024-01-16T08:27:57;98845.59;;;8.18;78.98
2675;BME280;1347;42.122;24.746;2024-01-16T08:33:46;98845.97;;;8.16;79.19
2675;BME280;1347;42.122;24.746;2024-01-16T08:39:36;98872.34;;;8.31;77.22
2675;BME280;1347;42.122;24.746;2024-01-16T08:42:04;98878.22;;;8.33;76.22
2675;BME280;1347;42.122;24.746;2024-01-16T08:44:30;98884.72;;;8.52;75.20
2675;BME280;1347;42.122;24.746;2024-01-16T08:46:57;98906.97;;;8.54;75.37
2675;BME280;1347;42.122;24.746;2024-01-16T08:49:26;98909.44;;;8.62;75.08
2675;BME280;1347;42.122;24.746;2024-01-16T08:51:53;98913.50;;;8.45;74.63
2675;BME280;1347;42.122;24.746;2024-01-16T08:54:19;98921.22;;;8.70;73.54
2675;BME280;1347;42.122;24.746;2024-01-16T08:56:49;98923.91;;;8.66;72.90
2675;BME280;1347;42.122;24.746;2024-01-16T08:59:16;98927.44;;;8.67;71.84
2675;BME280;1347;42.122;24.746;2024-01-16T09:01:43;98942.16;;;8.59;71.46
2675;BME280;1347;42.122;24.746;2024-01-16T09:04:10;98946.81;;;8.88;70.79
2675;BME280;1347;42.122;24.746;2024-01-16T09:06:37;98937.53;;;8.93;69.89
2675;BME280;1347;42.122;24.746;2024-01-16T09:09:04;98945.13;;;9.10;68.68
2675;BME280;1347;42.122;24.746;2024-01-16T09:11:30;98948.47;;;9.26;67.74
2675;BME280;1347;42.122;24.746;2024-01-16T09:13:58;98950.09;;;9.34;66.78
2675;BME280;1347;42.122;24.746;2024-01-16T09:16:25;98950.03;;;9.68;66.00
2675;BME280;1347;42.122;24.746;2024-01-16T09:18:52;98944.03;;;9.99;63.77
2675;BME280;1347;42.122;24.746;2024-01-16T09:21:20;98944.81;;;10.47;61.70
2675;BME280;1347;42.122;24.746;2024-01-16T09:23:47;98950.78;;;10.67;59.97
2675;BME280;1347;42.122;24.746;2024-01-16T09:26:14;98949.47;;;10.43;59.05
2675;BME280;1347;42.122;24.746;2024-01-16T09:28:41;98949.84;;;10.38;58.43
2675;BME280;1347;42.122;24.746;2024-01-16T09:31:09;98963.75;;;10.15;57.80
2675;BME280;1347;42.122;24.746;2024-01-16T09:33:36;98960.66;;;10.20;58.32
2675;BME280;1347;42.122;24.746;2024-01-16T09:36:03;98967.50;;;11.31;55.81
2675;BME280;1347;42.122;24.746;2024-01-16T09:38:30;98955.84;;;12.26;52.00
2675;BME280;1347;42.122;24.746;2024-01-16T09:40:57;98998.16;;;13.80;49.73
2675;BME280;1347;42.122;24.746;2024-01-16T09:43:27;98973.09;;;14.15;47.06
2675;BME280;1347;42.122;24.746;2024-01-16T09:49:17;98991.16;;;13.68;46.57
2675;BME280;1347;42.122;24.746;2024-01-16T09:55:07;98985.28;;;12.22;47.72
2675;BME280;1347;42.122;24.746;2024-01-16T09:57:37;98976.22;;;11.72;48.31
2675;BME280;1347;42.122;24.746;2024-01-16T10:00:07;98979.34;;;11.74;49.10
2675;BME280;1347;42.122;24.746;2024-01-16T10:02:38;98980.50;;;11.48;49.20
2675;BME280;1347;42.122;24.746;2024-01-16T10:05:07;98990.25;;;11.42;50.04
2675;BME280;1347;42.122;24.746;2024-01-16T10:07:35;98994.59;;;11.39;50.17
2675;BME280;1347;42.122;24.746;2024-01-16T10:10:05;99003.53;;;11.22;50.51
2675;BME280;1347;42.122;24.746;2024-01-16T10:12:32;98988.16;;;11.03;50.26
2675;BME280;1347;42.122;24.746;2024-01-16T10:14:59;99006.28;;;11.22;50.20
2675;BME280;1347;42.122;24.746;2024-01-16T10:17:36;99006.56;;;10.99;50.03
2675;BME280;1347;42.122;24.746;2024-01-16T10:20:04;99002.00;;;11.28;50.02
2675;BME280;1347;42.122;24.746;2024-01-16T10:22:33;99009.88;;;11.37;50.25
2675;BME280;1347;42.122;24.746;2024-01-16T10:25:07;99008.63;;;11.24;49.67
2675;BME280;1347;42.122;24.746;2024-01-16T10:27:34;99011.72;;;11.15;50.63
2675;BME280;1347;42.122;24.746;2024-01-16T10:30:02;99016.81;;;11.13;50.28
2675;BME280;1347;42.122;24.746;2024-01-16T10:32:30;99021.03;;;10.93;50.65
2675;BME280;1347;42.122;24.746;2024-01-16T10:35:05;99018.53;;;10.66;51.60
2675;BME280;1347;42.122;24.746;2024-01-16T10:37:48;99020.19;;;10.82;51.05
2675;BME280;1347;42.122;24.746;2024-01-16T10:40:16;99026.84;;;10.84;51.30
2675;BME280;1347;42.122;24.746;2024-01-16T10:42:43;99027.56;;;10.74;51.18
2675;BME280;1347;42.122;24.746;2024-01-16T10:45:16;99028.03;;;10.83;50.93
2675;BME280;1347;42.122;24.746;2024-01-16T10:47:45;99018.22;;;10.82;51.86
2675;BME280;1347;42.122;24.746;2024-01-16T10:50:12;99030.81;;;10.94;51.74
2675;BME280;1347;42.122;24.746;2024-01-16T10:52:46;99026.91;;;10.95;50.40
2675;BME280;1347;42.122;24.746;2024-01-16T10:55:19;99037.06;;;10.87;51.26
2675;BME280;1347;42.122;24.746;2024-01-16T10:57:48;99037.19;;;10.47;51.71
2675;BME280;1347;42.122;24.746;2024-01-16T11:00:18;99046.06;;;10.84;51.83
2675;BME280;1347;42.122;24.746;2024-01-16T11:02:49;99039.66;;;10.66;51.74
2675;BME280;1347;42.122;24.746;2024-01-16T11:05:17;99042.47;;;10.77;51.08
2675;BME280;1347;42.122;24.746;2024-01-16T11:07:44;99028.34;;;10.71;51.16
2675;BME280;1347;42.122;24.746;2024-01-16T11:10:12;99033.94;;;10.89;51.75
2675;BME280;1347;42.122;24.746;2024-01-16T11:12:41;99040.59;;;10.91;50.87
2675;BME280;1347;42.122;24.746;2024-01-16T11:15:10;99031.53;;;10.80;50.96
2675;BME280;1347;42.122;24.746;2024-01-16T11:17:38;99035.91;;;10.88;49.88
2675;BME280;1347;42.122;24.746;2024-01-16T11:20:06;99042.69;;;10.50;50.06
2675;BME280;1347;42.122;24.746;2024-01-16T11:22:38;99040.16;;;10.82;50.08
2675;BME280;1347;42.122;24.746;2024-01-16T11:28:29;99056.59;;;10.27;50.14
2675;BME280;1347;42.122;24.746;2024-01-16T11:30:56;99044.69;;;10.13;50.21
2675;BME280;1347;42.122;24.746;2024-01-16T11:33:41;99047.00;;;10.07;51.17
2675;BME280;1347;42.122;24.746;2024-01-16T11:36:42;99043.44;;;10.03;50.78
2675;BME280;1347;42.122;24.746;2024-01-16T11:39:17;99034.38;;;9.95;50.34
2675;BME280;1347;42.122;24.746;2024-01-16T11:41:54;99046.13;;;10.00;50.47
2675;BME280;1347;42.122;24.746;2024-01-16T11:44:38;99043.94;;;9.75;51.50
2675;BME280;1347;42.122;24.746;2024-01-16T11:47:05;99046.44;;;9.91;50.36
2675;BME280;1347;42.122;24.746;2024-01-16T11:49:34;99049.91;;;9.84;50.81
2675;BME280;1347;42.122;24.746;2024-01-16T11:52:01;99053.13;;;9.93;49.62
2675;BME280;1347;42.122;24.746;2024-01-16T11:54:27;99064.03;;;9.90;49.70
2675;BME280;1347;42.122;24.746;2024-01-16T11:57:26;99059.81;;;9.96;50.22
2675;BME280;1347;42.122;24.746;2024-01-16T12:00:03;99066.03;;;9.93;49.06
2675;BME280;1347;42.122;24.746;2024-01-16T12:02:55;99077.97;;;9.78;48.34
2675;BME280;1347;42.122;24.746;2024-01-16T12:05:23;99076.31;;;9.66;49.31
2675;BME280;1347;42.122;24.746;2024-01-16T12:07:50;99075.22;;;9.74;49.65
2675;BME280;1347;42.122;24.746;2024-01-16T12:10:20;99085.31;;;9.67;49.35
2675;BME280;1347;42.122;24.746;2024-01-16T12:12:48;99076.69;;;9.68;49.75
2675;BME280;1347;42.122;24.746;2024-01-16T12:15:19;99079.78;;;9.63;50.46
2675;BME280;1347;42.122;24.746;2024-01-16T12:17:53;99082.69;;;9.47;50.61
2675;BME280;1347;42.122;24.746;2024-01-16T12:20:21;99070.94;;;9.43;50.01
2675;BME280;1347;42.122;24.746;2024-01-16T12:22:56;99099.41;;;9.39;50.37
2675;BME280;1347;42.122;24.746;2024-01-16T12:25:23;99089.63;;;9.38;49.60
2675;BME280;1347;42.122;24.746;2024-01-16T12:27:57;99100.06;;;9.29;50.06
2675;BME280;1347;42.122;24.746;2024-01-16T12:30:27;99100.13;;;9.32;49.98
2675;BME280;1347;42.122;24.746;2024-01-16T12:33:05;99101.28;;;9.31;49.46
2675;BME280;1347;42.122;24.746;2024-01-16T12:35:34;99096.31;;;9.10;49.46
2675;BME280;1347;42.122;24.746;2024-01-16T12:38:02;99096.03;;;9.19;49.32
2675;BME280;1347;42.122;24.746;2024-01-16T12:40:31;99101.03;;;9.13;49.63
2675;BME280;1347;42.122;24.746;2024-01-16T12:42:58;99110.34;;;9.09;50.06
2675;BME280;1347;42.122;24.746;2024-01-16T12:45:27;99117.75;;;9.08;49.82
2675;BME280;1347;42.122;24.746;2024-01-16T12:47:55;99120.19;;;9.13;49.60
2675;BME280;1347;42.122;24.746;2024-01-16T12:50:25;99120.06;;;9.06;49.38
2675;BME280;1347;42.122;24.746;2024-01-16T12:53:03;99136.47;;;9.06;49.70
2675;BME280;1347;42.122;24.746;2024-01-16T12:55:31;99121.63;;;9.07;50.33
2675;BME280;1347;42.122;24.746;2024-01-16T12:58:15;99135.28;;;9.04;49.68
2675;BME280;1347;42.122;24.746;2024-01-16T13:04:05;99146.31;;;9.11;50.20
2675;BME280;1347;42.122;24.746;2024-01-16T13:06:32;99151.41;;;9.12;50.25
2675;BME280;1347;42.122;24.746;2024-01-16T13:09:05;99150.97;;;9.10;50.30
2675;BME280;1347;42.122;24.746;2024-01-16T13:11:45;99162.28;;;9.09;50.35
2675;BME280;1347;42.122;24.746;2024-01-16T13:14:12;99156.38;;;9.07;50.12
2675;BME280;1347;42.122;24.746;2024-01-16T13:16:39;99150.63;;;9.12;49.48
2675;BME280;1347;42.122;24.746;2024-01-16T13:19:07;99154.88;;;9.09;50.09
2675;BME280;1347;42.122;24.746;2024-01-16T13:21:36;99166.94;;;9.05;50.36
2675;BME280;1347;42.122;24.746;2024-01-16T13:24:03;99170.03;;;9.03;49.61
2675;BME280;1347;42.122;24.746;2024-01-16T13:26:30;99176.03;;;9.12;50.03
2675;BME280;1347;42.122;24.746;2024-01-16T13:28:57;99174.81;;;9.10;50.61
2675;BME280;1347;42.122;24.746;2024-01-16T13:34:47;99191.69;;;9.42;50.17
2675;BME280;1347;42.122;24.746;2024-01-16T13:37:19;99198.53;;;9.55;50.17
2675;BME280;1347;42.122;24.746;2024-01-16T13:39:46;99183.69;;;9.56;48.98
2675;BME280;1347;42.122;24.746;2024-01-16T13:42:13;99195.81;;;9.88;48.98
2675;BME280;1347;42.122;24.746;2024-01-16T13:44:44;99197.75;;;9.88;48.41
2675;BME280;1347;42.122;24.746;2024-01-16T13:47:11;99190.53;;;9.73;48.02
2675;BME280;1347;42.122;24.746;2024-01-16T13:49:38;99205.59;;;9.89;48.02
2675;BME280;1347;42.122;24.746;2024-01-16T13:52:07;99211.31;;;9.77;48.14
2675;BME280;1347;42.122;24.746;2024-01-16T13:54:36;99214.31;;;9.69;47.02